createdAt,value
2019-05-07T00:00:15.976Z,75.08
2019-05-07T00:02:42.830Z,75.23
2019-05-07T00:05:09.136Z,75.64
2019-05-07T00:07:35.174Z,76.68
2019-05-07T00:10:03.339Z,76.50
2019-05-07T00:12:29.371Z,76.49
2019-05-07T00:15:00.892Z,75.95
2019-05-07T00:17:23.236Z,76.78
2019-05-07T00:19:49.256Z,77.12
2019-05-07T00:22:15.270Z,77.05
2019-05-07T00:24:42.582Z,76.88
2019-05-07T00:27:08.895Z,76.92
2019-05-07T00:29:34.902Z,76.78
2019-05-07T00:32:02.939Z,76.95
2019-05-07T00:34:32.794Z,77.35
2019-05-07T00:37:02.164Z,77.70
2019-05-07T00:39:32.958Z,78.00
2019-05-07T00:42:02.926Z,77.77
2019-05-07T00:44:29.049Z,77.40
2019-05-07T00:46:55.138Z,77.93
2019-05-07T00:49:22.753Z,77.94
2019-05-07T00:51:48.728Z,77.64
2019-05-07T00:54:14.715Z,78.14
2019-05-07T00:56:42.894Z,78.34
2019-05-07T00:59:08.862Z,78.51
2019-05-07T01:01:35.467Z,78.10
2019-05-07T01:04:02.664Z,78.80
2019-05-07T01:06:28.844Z,78.83
2019-05-07T01:08:54.956Z,78.14
2019-05-07T01:11:22.663Z,78.16
2019-05-07T01:13:48.848Z,78.80
2019-05-07T01:16:14.844Z,78.51
2019-05-07T01:18:42.079Z,79.21
2019-05-07T01:21:08.479Z,79.49
2019-05-07T01:23:34.516Z,79.80
2019-05-07T01:26:00.479Z,80.33
2019-05-07T01:28:26.490Z,79.67
2019-05-07T01:30:52.924Z,79.98
2019-05-07T01:33:23.747Z,80.19
2019-05-07T01:35:57.200Z,80.43
2019-05-07T01:38:23.195Z,80.25
2019-05-07T01:40:49.172Z,80.13
2019-05-07T01:43:15.193Z,80.73
2019-05-07T01:45:49.222Z,80.93
2019-05-07T01:48:12.811Z,81.11
2019-05-07T01:50:38.794Z,81.40
2019-05-07T01:53:04.788Z,81.86
2019-05-07T01:55:31.901Z,81.78
2019-05-07T01:57:57.996Z,81.70
2019-05-07T02:00:24.032Z,80.92
2019-05-07T02:02:54.878Z,81.67
2019-05-07T02:05:25.587Z,82.02
2019-05-07T02:07:53.527Z,81.79
2019-05-07T02:10:23.923Z,82.60
2019-05-07T02:12:50.019Z,82.70
2019-05-07T02:15:16.025Z,82.85
2019-05-07T02:17:43.004Z,82.67
2019-05-07T02:20:09.564Z,82.84
2019-05-07T02:22:35.620Z,82.31
2019-05-07T02:25:03.373Z,82.54
2019-05-07T02:27:29.573Z,83.05
2019-05-07T02:29:55.553Z,83.10
2019-05-07T02:32:24.051Z,83.41
2019-05-07T02:34:49.708Z,82.99
2019-05-07T02:37:17.635Z,83.33
2019-05-07T02:39:48.060Z,83.63
2019-05-07T02:42:14.046Z,83.23
2019-05-07T02:44:58.378Z,83.47
2019-05-07T02:47:24.976Z,83.67
2019-05-07T02:49:53.590Z,84.05
2019-05-07T02:52:24.891Z,83.96
2019-05-07T02:54:55.576Z,83.96
2019-05-07T02:57:24.005Z,83.73
2019-05-07T02:59:50.165Z,83.92
2019-05-07T03:02:16.488Z,83.82
2019-05-07T03:04:43.518Z,84.02
2019-05-07T03:07:12.933Z,84.26
2019-05-07T03:09:37.943Z,85.12
2019-05-07T03:12:04.249Z,84.23
2019-05-07T03:14:32.389Z,83.85
2019-05-07T03:16:58.411Z,83.79
2019-05-07T03:19:24.752Z,84.53
2019-05-07T03:21:53.812Z,84.32
2019-05-07T03:24:37.080Z,84.53
2019-05-07T03:27:03.604Z,84.67
2019-05-07T03:29:33.009Z,84.76
2019-05-07T03:32:16.273Z,84.56
2019-05-07T03:34:47.468Z,84.36
2019-05-07T03:37:15.451Z,85.09
2019-05-07T03:39:43.341Z,85.14
2019-05-07T03:42:09.344Z,84.79
2019-05-07T03:44:39.978Z,85.18
2019-05-07T03:47:14.725Z,85.37
2019-05-07T03:49:42.998Z,84.04
2019-05-07T03:52:08.661Z,84.19
2019-05-07T03:54:34.698Z,84.02
2019-05-07T03:57:10.346Z,83.92
2019-05-07T03:59:30.005Z,84.21
2019-05-07T04:01:55.993Z,84.10
2019-05-07T04:04:23.006Z,83.98
2019-05-07T04:06:49.226Z,84.38
2019-05-07T04:09:15.447Z,84.79
2019-05-07T04:11:43.341Z,84.47
2019-05-07T04:14:09.370Z,84.63
2019-05-07T04:16:35.847Z,84.11
2019-05-07T04:19:03.913Z,84.66
2019-05-07T04:21:29.896Z,84.53
2019-05-07T04:24:13.938Z,84.52
2019-05-07T04:26:44.618Z,83.94
2019-05-07T04:29:22.882Z,84.04
2019-05-07T04:31:47.557Z,84.20
2019-05-07T04:34:15.599Z,83.99
2019-05-07T04:36:43.950Z,83.89
2019-05-07T04:39:12.961Z,83.89
2019-05-07T04:41:38.053Z,83.93
2019-05-07T04:44:04.066Z,84.21
2019-05-07T04:46:33.049Z,84.24
2019-05-07T04:48:58.244Z,84.12
2019-05-07T04:51:26.230Z,83.65
2019-05-07T04:53:54.167Z,83.72
2019-05-07T04:56:23.566Z,83.04
2019-05-07T04:58:48.369Z,83.17
2019-05-07T05:01:16.374Z,83.15
2019-05-07T05:03:43.678Z,82.38
2019-05-07T05:06:09.971Z,82.15
2019-05-07T05:08:36.313Z,82.31
2019-05-07T05:11:03.451Z,81.70
2019-05-07T05:13:32.186Z,81.28
2019-05-07T05:15:59.535Z,80.96
2019-05-07T05:18:25.528Z,80.15
2019-05-07T05:20:59.293Z,80.30
2019-05-07T05:23:29.705Z,80.48
2019-05-07T05:25:56.027Z,80.52
2019-05-07T05:28:22.081Z,79.99
2019-05-07T05:30:50.046Z,79.99
2019-05-07T05:33:16.234Z,79.88
2019-05-07T05:35:43.094Z,79.73
2019-05-07T05:38:09.398Z,79.44
2019-05-07T05:40:35.567Z,79.78
2019-05-07T05:43:19.804Z,79.14
2019-05-07T05:45:47.879Z,79.09
2019-05-07T05:48:13.994Z,79.08
2019-05-07T05:50:56.989Z,78.42
2019-05-07T05:53:32.612Z,78.54
2019-05-07T05:56:02.246Z,78.12
2019-05-07T05:58:43.081Z,77.61
2019-05-07T06:01:31.927Z,76.80
2019-05-07T06:04:08.268Z,76.65
2019-05-07T06:06:36.346Z,76.13
2019-05-07T06:09:24.020Z,75.28
2019-05-07T06:12:08.727Z,74.21
2019-05-07T06:14:36.685Z,74.33
2019-05-07T06:17:07.108Z,73.72
2019-05-07T06:19:42.388Z,73.15
2019-05-07T06:22:26.629Z,72.45
2019-05-07T06:24:56.407Z,71.54
2019-05-07T06:27:22.924Z,71.56
2019-05-07T06:29:49.084Z,71.45
2019-05-07T06:32:16.993Z,71.24
2019-05-07T06:34:44.741Z,69.28
2019-05-07T06:37:11.870Z,69.36
2019-05-07T06:39:45.837Z,67.75
2019-05-07T06:42:25.409Z,65.76
2019-05-07T06:44:56.145Z,63.76
2019-05-07T06:47:22.238Z,61.68
2019-05-07T06:49:48.263Z,60.29
2019-05-07T06:52:14.286Z,59.09
2019-05-07T06:54:42.730Z,58.95
2019-05-07T06:57:08.187Z,57.47
2019-05-07T06:59:38.839Z,57.90
2019-05-07T07:02:23.277Z,56.73
2019-05-07T07:04:52.004Z,55.64
2019-05-07T07:07:29.876Z,55.21
2019-05-07T07:09:58.284Z,55.52
2019-05-07T07:12:33.138Z,55.11
2019-05-07T07:14:59.480Z,53.28
2019-05-07T07:17:25.501Z,55.38
2019-05-07T07:19:52.329Z,54.70
2019-05-07T07:22:18.424Z,53.49
2019-05-07T07:24:44.391Z,52.91
2019-05-07T07:27:10.452Z,54.12
2019-05-07T07:29:38.392Z,54.53
2019-05-07T07:32:06.315Z,55.53
2019-05-07T07:34:34.238Z,55.35
2019-05-07T07:37:17.062Z,55.63
2019-05-07T07:39:43.233Z,55.56
2019-05-07T07:42:09.502Z,53.64
2019-05-07T07:44:35.488Z,53.22
2019-05-07T07:47:02.491Z,51.41
2019-05-07T07:49:28.706Z,51.71
2019-05-07T07:51:54.682Z,50.60
2019-05-07T07:54:22.646Z,49.56
2019-05-07T07:56:56.322Z,49.62
2019-05-07T07:59:23.083Z,48.13
2019-05-07T08:01:52.416Z,47.62
2019-05-07T08:04:18.600Z,49.49
2019-05-07T08:06:45.239Z,50.76
2019-05-07T08:09:12.946Z,50.21
2019-05-07T08:11:39.165Z,48.29
2019-05-07T08:14:05.801Z,49.10
2019-05-07T08:16:32.757Z,48.54
2019-05-07T08:18:58.993Z,48.27
2019-05-07T08:21:25.114Z,48.78
2019-05-07T08:23:52.892Z,48.99
2019-05-07T08:26:19.005Z,47.01
2019-05-07T08:28:45.035Z,45.73
2019-05-07T08:31:13.205Z,47.65
2019-05-07T08:33:46.983Z,47.38
2019-05-07T08:36:15.061Z,46.72
2019-05-07T08:38:52.700Z,46.65
2019-05-07T08:41:22.333Z,44.74
2019-05-07T08:43:51.329Z,43.15
2019-05-07T08:46:32.771Z,45.14
2019-05-07T08:48:58.885Z,46.39
2019-05-07T08:51:24.909Z,46.17
2019-05-07T08:53:52.891Z,46.38
2019-05-07T08:56:18.949Z,46.79
2019-05-07T08:58:45.040Z,48.66
2019-05-07T09:01:11.855Z,48.29
2019-05-07T09:03:43.833Z,48.96
2019-05-07T09:06:11.677Z,47.21
2019-05-07T09:08:37.948Z,45.46
2019-05-07T09:11:03.957Z,45.28
2019-05-07T09:13:29.943Z,44.93
2019-05-07T09:15:56.087Z,43.85
2019-05-07T09:18:22.952Z,43.31
2019-05-07T09:20:49.057Z,42.28
2019-05-07T09:23:15.097Z,42.82
2019-05-07T09:25:46.016Z,42.18
2019-05-07T09:28:12.010Z,42.71
2019-05-07T09:30:48.632Z,42.11
2019-05-07T09:33:16.526Z,44.01
2019-05-07T09:35:44.439Z,45.54
2019-05-07T09:38:12.199Z,43.44
2019-05-07T09:40:38.303Z,45.23
2019-05-07T09:43:04.357Z,45.12
2019-05-07T09:45:32.639Z,44.50
2019-05-07T09:47:58.226Z,43.40
2019-05-07T09:50:24.342Z,42.31
2019-05-07T09:52:51.818Z,42.27
2019-05-07T09:55:18.071Z,43.09
2019-05-07T09:57:44.058Z,42.61
2019-05-07T10:00:12.312Z,42.06
2019-05-07T10:02:38.565Z,42.37
2019-05-07T10:05:04.884Z,41.51
2019-05-07T10:07:32.445Z,42.25
2019-05-07T10:09:58.652Z,42.84
2019-05-07T10:12:33.055Z,42.11
2019-05-07T10:14:59.201Z,40.09
2019-05-07T10:17:32.825Z,40.63
2019-05-07T10:19:59.566Z,37.83
2019-05-07T10:22:25.572Z,38.17
2019-05-07T10:24:52.211Z,37.64
2019-05-07T10:27:18.400Z,37.64
2019-05-07T10:29:44.375Z,37.94
2019-05-07T10:32:12.604Z,41.03
2019-05-07T10:34:38.469Z,41.57
2019-05-07T10:37:04.491Z,43.37
2019-05-07T10:39:32.422Z,43.37
2019-05-07T10:41:58.484Z,42.20
2019-05-07T10:44:26.451Z,42.82
2019-05-07T10:46:54.372Z,42.59
2019-05-07T10:49:22.648Z,40.98
2019-05-07T10:51:48.766Z,40.98
2019-05-07T10:54:15.085Z,40.33
2019-05-07T10:56:41.895Z,37.47
2019-05-07T10:59:08.037Z,37.03
2019-05-07T11:01:42.557Z,37.07
2019-05-07T11:04:08.648Z,34.75
2019-05-07T11:06:34.660Z,35.73
2019-05-07T11:09:00.686Z,35.87
2019-05-07T11:11:26.677Z,35.37
2019-05-07T11:13:55.863Z,33.35
2019-05-07T11:16:22.466Z,34.62
2019-05-07T11:18:51.802Z,35.49
2019-05-07T11:21:19.826Z,35.56
2019-05-07T11:23:45.834Z,35.27
2019-05-07T11:26:12.072Z,35.24
2019-05-07T11:28:38.071Z,35.88
2019-05-07T11:31:04.070Z,34.49
2019-05-07T11:33:32.326Z,33.57
2019-05-07T11:35:57.987Z,34.88
2019-05-07T11:38:24.936Z,34.08
2019-05-07T11:40:51.788Z,35.58
2019-05-07T11:43:22.100Z,37.77
2019-05-07T11:45:54.328Z,39.19
2019-05-07T11:48:22.198Z,41.82
2019-05-07T11:51:01.377Z,41.93
2019-05-07T11:53:22.510Z,43.81
2019-05-07T11:55:48.491Z,42.87
2019-05-07T11:58:14.484Z,43.10
2019-05-07T12:00:43.314Z,43.63
2019-05-07T12:03:09.388Z,44.24
2019-05-07T12:05:35.721Z,43.83
2019-05-07T12:08:02.403Z,44.94
2019-05-07T12:10:28.572Z,44.89
2019-05-07T12:12:54.713Z,44.12
2019-05-07T12:15:21.732Z,43.82
2019-05-07T12:17:48.261Z,43.62
2019-05-07T12:20:14.862Z,43.76
2019-05-07T12:22:51.990Z,44.61
2019-05-07T12:25:19.593Z,42.89
2019-05-07T12:27:46.988Z,42.46
2019-05-07T12:30:32.631Z,40.32
2019-05-07T12:33:06.588Z,38.45
2019-05-07T12:35:33.162Z,37.89
2019-05-07T12:37:59.171Z,37.00
2019-05-07T12:40:25.375Z,35.79
2019-05-07T12:42:52.421Z,35.89
2019-05-07T12:45:18.584Z,34.45
2019-05-07T12:47:44.588Z,33.13
2019-05-07T12:50:10.956Z,32.73
2019-05-07T12:52:39.104Z,33.43
2019-05-07T12:55:11.840Z,34.24
2019-05-07T12:57:37.864Z,33.15
2019-05-07T13:00:25.082Z,33.52
2019-05-07T13:02:52.957Z,33.22
2019-05-07T13:05:18.976Z,33.03
2019-05-07T13:07:46.864Z,34.16
2019-05-07T13:10:12.934Z,36.07
2019-05-07T13:12:38.983Z,37.16
2019-05-07T13:15:05.367Z,38.24
2019-05-07T13:17:33.582Z,43.02
2019-05-07T13:20:01.585Z,44.93
2019-05-07T13:22:27.239Z,46.43
2019-05-07T13:24:53.256Z,51.51
2019-05-07T13:27:19.242Z,53.19
2019-05-07T13:29:45.337Z,53.60
2019-05-07T13:32:12.929Z,52.22
2019-05-07T13:34:39.807Z,52.64
2019-05-07T13:37:13.665Z,52.36
2019-05-07T13:39:42.942Z,51.99
2019-05-07T13:42:12.697Z,52.51
2019-05-07T13:44:43.628Z,53.19
2019-05-07T13:47:23.413Z,54.90
2019-05-07T13:49:53.551Z,54.31
2019-05-07T13:52:17.724Z,53.41
2019-05-07T13:54:43.929Z,53.77
2019-05-07T13:57:12.045Z,53.51
2019-05-07T13:59:38.195Z,52.77
2019-05-07T14:02:06.494Z,52.76
2019-05-07T14:04:32.683Z,49.67
2019-05-07T14:07:01.812Z,46.89
2019-05-07T14:09:27.913Z,46.04
2019-05-07T14:11:53.945Z,44.76
2019-05-07T14:14:22.188Z,43.65
2019-05-07T14:16:48.316Z,43.96
2019-05-07T14:19:14.321Z,43.89
2019-05-07T14:21:42.179Z,43.42
2019-05-07T14:24:08.386Z,43.89
2019-05-07T14:26:34.377Z,43.66
2019-05-07T14:29:01.908Z,42.60
2019-05-07T14:31:28.322Z,41.28
2019-05-07T14:33:58.920Z,40.09
2019-05-07T14:36:31.835Z,39.33
2019-05-07T14:38:57.760Z,40.86
2019-05-07T14:41:25.706Z,39.99
2019-05-07T14:44:02.517Z,39.62
2019-05-07T14:46:43.515Z,44.41
2019-05-07T14:48:56.676Z,44.42
2019-05-07T14:51:22.788Z,44.21
2019-05-07T14:53:48.905Z,45.61
2019-05-07T14:56:15.208Z,46.30
2019-05-07T14:58:42.320Z,46.14
2019-05-07T15:01:08.761Z,46.02
2019-05-07T15:03:34.992Z,40.70
2019-05-07T15:06:02.038Z,40.43
2019-05-07T15:08:28.184Z,39.86
2019-05-07T15:10:54.160Z,39.56
2019-05-07T15:13:21.770Z,39.64
2019-05-07T15:15:48.471Z,40.97
2019-05-07T15:18:25.633Z,42.22
2019-05-07T15:20:52.486Z,41.53
2019-05-07T15:23:26.697Z,40.92
2019-05-07T15:25:53.185Z,41.71
2019-05-07T15:28:19.178Z,42.31
2019-05-07T15:30:52.875Z,42.15
2019-05-07T15:33:19.001Z,42.53
2019-05-07T15:35:45.036Z,41.70
2019-05-07T15:38:11.639Z,40.73
2019-05-07T15:40:37.836Z,40.19
2019-05-07T15:43:04.109Z,40.17
2019-05-07T15:45:30.201Z,39.50
2019-05-07T15:47:57.526Z,39.69
2019-05-07T15:50:25.405Z,39.02
2019-05-07T15:52:58.379Z,38.81
2019-05-07T15:55:24.577Z,39.12
2019-05-07T15:57:52.156Z,39.08
2019-05-07T16:00:23.425Z,38.03
2019-05-07T16:03:09.029Z,37.22
2019-05-07T16:05:35.033Z,37.45
2019-05-07T16:08:01.761Z,37.95
2019-05-07T16:10:29.132Z,37.70
2019-05-07T16:12:55.196Z,37.65
2019-05-07T16:15:22.502Z,38.61
2019-05-07T16:17:52.205Z,38.52
2019-05-07T16:20:18.365Z,38.47
2019-05-07T16:22:49.059Z,39.41
2019-05-07T16:25:15.051Z,39.73
2019-05-07T16:27:42.187Z,40.54
2019-05-07T16:30:13.819Z,42.69
2019-05-07T16:32:38.374Z,43.05
2019-05-07T16:35:05.666Z,42.87
2019-05-07T16:37:32.644Z,43.60
2019-05-07T16:39:58.624Z,42.91
2019-05-07T16:42:24.655Z,42.73
2019-05-07T16:44:52.307Z,43.18
2019-05-07T16:47:18.556Z,43.92
2019-05-07T16:49:44.654Z,44.04
2019-05-07T16:52:12.000Z,45.85
2019-05-07T16:54:38.144Z,43.72
2019-05-07T16:57:15.199Z,43.82
2019-05-07T16:59:42.697Z,41.37
2019-05-07T17:02:13.325Z,39.24
2019-05-07T17:04:42.518Z,40.32
2019-05-07T17:07:10.540Z,40.96
2019-05-07T17:09:36.594Z,42.21
2019-05-07T17:12:04.537Z,44.32
2019-05-07T17:14:30.527Z,45.84
2019-05-07T17:16:56.603Z,45.88
2019-05-07T17:19:22.582Z,45.70
2019-05-07T17:21:48.815Z,46.20
2019-05-07T17:24:14.907Z,46.97
2019-05-07T17:26:42.376Z,45.91
2019-05-07T17:29:09.644Z,46.81
2019-05-07T17:31:35.700Z,47.15
2019-05-07T17:34:03.173Z,47.98
2019-05-07T17:36:29.265Z,48.49
2019-05-07T17:38:55.422Z,49.08
2019-05-07T17:41:26.539Z,49.23
2019-05-07T17:43:49.339Z,49.08
2019-05-07T17:46:15.508Z,49.16
2019-05-07T17:48:42.940Z,48.68
2019-05-07T17:51:12.441Z,48.74
2019-05-07T17:53:38.776Z,48.69
2019-05-07T17:56:04.918Z,50.47
2019-05-07T17:58:32.528Z,50.03
2019-05-07T18:01:01.795Z,50.26
2019-05-07T18:03:32.028Z,50.22
2019-05-07T18:05:57.935Z,51.06
2019-05-07T18:08:23.929Z,51.58
2019-05-07T18:10:49.937Z,50.77
2019-05-07T18:13:15.991Z,51.22
2019-05-07T18:15:42.796Z,51.38
2019-05-07T18:18:12.851Z,51.31
2019-05-07T18:20:38.792Z,51.03
2019-05-07T18:23:07.210Z,50.90
2019-05-07T18:25:32.865Z,50.93
2019-05-07T18:27:59.095Z,51.77
2019-05-07T18:30:25.767Z,51.16
2019-05-07T18:32:56.607Z,50.92
2019-05-07T18:35:23.286Z,51.27
2019-05-07T18:37:52.676Z,52.54
2019-05-07T18:40:20.200Z,51.81
2019-05-07T18:42:46.443Z,51.40
2019-05-07T18:45:12.715Z,51.52
2019-05-07T18:47:38.765Z,52.06
2019-05-07T18:50:05.336Z,51.89
2019-05-07T18:52:31.960Z,51.41
2019-05-07T18:54:58.175Z,51.74
2019-05-07T18:57:24.324Z,52.20
2019-05-07T18:59:50.362Z,51.83
2019-05-07T19:02:16.354Z,52.18
2019-05-07T19:04:42.784Z,52.93
2019-05-07T19:07:09.024Z,53.07
2019-05-07T19:09:35.279Z,53.44
2019-05-07T19:12:01.659Z,53.37
2019-05-07T19:14:27.945Z,54.50
2019-05-07T19:16:53.936Z,54.57
2019-05-07T19:19:22.046Z,55.15
2019-05-07T19:21:47.922Z,55.43
2019-05-07T19:24:14.073Z,55.45
2019-05-07T19:26:41.945Z,55.27
2019-05-07T19:29:08.118Z,55.32
2019-05-07T19:31:34.358Z,55.85
2019-05-07T19:34:00.406Z,56.15
2019-05-07T19:36:26.407Z,56.25
2019-05-07T19:38:52.714Z,56.57
2019-05-07T19:41:18.831Z,56.49
2019-05-07T19:43:44.950Z,56.75
2019-05-07T19:46:12.375Z,56.40
2019-05-07T19:48:38.600Z,57.27
2019-05-07T19:51:04.628Z,58.22
2019-05-07T19:53:32.616Z,58.92
2019-05-07T19:56:03.533Z,60.34
2019-05-07T19:58:29.822Z,60.80
2019-05-07T20:00:57.213Z,60.93
2019-05-07T20:03:23.648Z,61.57
2019-05-07T20:05:52.386Z,62.01
2019-05-07T20:08:18.129Z,62.44
2019-05-07T20:10:46.048Z,62.18
2019-05-07T20:13:12.623Z,61.66
2019-05-07T20:15:42.594Z,61.20
2019-05-07T20:18:08.943Z,61.41
2019-05-07T20:20:35.009Z,61.37
2019-05-07T20:23:02.569Z,62.09
2019-05-07T20:25:28.911Z,62.15
2019-05-07T20:27:55.132Z,61.96
2019-05-07T20:30:22.895Z,61.81
2019-05-07T20:32:49.638Z,62.33
2019-05-07T20:35:15.915Z,62.58
2019-05-07T20:37:42.095Z,63.07
2019-05-07T20:40:08.304Z,63.22
2019-05-07T20:42:34.524Z,63.26
2019-05-07T20:45:02.850Z,63.68
2019-05-07T20:47:28.786Z,64.07
2019-05-07T20:49:54.785Z,64.27
2019-05-07T20:52:22.779Z,64.88
2019-05-07T20:55:02.296Z,64.97
2019-05-07T20:57:31.989Z,65.33
2019-05-07T20:59:58.063Z,65.42
2019-05-07T21:02:24.077Z,65.53
2019-05-07T21:04:51.878Z,65.45
2019-05-07T21:07:18.057Z,65.96
2019-05-07T21:09:44.159Z,66.43
2019-05-07T21:12:10.156Z,67.02
2019-05-07T21:14:36.506Z,67.67
2019-05-07T21:17:02.721Z,67.90
2019-05-07T21:19:28.744Z,68.33
2019-05-07T21:21:54.780Z,68.29
2019-05-07T21:24:22.585Z,68.55
2019-05-07T21:26:48.630Z,69.64
2019-05-07T21:29:14.664Z,69.55
2019-05-07T21:31:42.814Z,69.01
2019-05-07T21:34:08.586Z,69.73
2019-05-07T21:36:34.560Z,70.44
2019-05-07T21:39:02.299Z,70.95
2019-05-07T21:41:28.542Z,71.00
2019-05-07T21:43:54.540Z,71.01
2019-05-07T21:46:22.270Z,71.37
2019-05-07T21:48:48.509Z,70.82
2019-05-07T21:51:14.513Z,70.43
2019-05-07T21:53:43.042Z,69.96
2019-05-07T21:56:23.193Z,69.83
2019-05-07T21:58:53.861Z,69.73
2019-05-07T22:01:21.922Z,69.56
2019-05-07T22:03:49.665Z,69.73
2019-05-07T22:06:15.682Z,70.15
2019-05-07T22:08:41.686Z,69.41
2019-05-07T22:11:09.503Z,69.59
2019-05-07T22:13:35.529Z,69.71
2019-05-07T22:16:02.583Z,69.68
2019-05-07T22:18:28.866Z,70.33
2019-05-07T22:20:54.845Z,70.77
2019-05-07T22:23:24.489Z,70.90
2019-05-07T22:25:51.959Z,70.96
2019-05-07T22:28:17.984Z,71.18
2019-05-07T22:30:52.783Z,70.63
2019-05-07T22:33:37.078Z,71.32
2019-05-07T22:36:03.144Z,71.79
2019-05-07T22:38:29.209Z,72.00
2019-05-07T22:40:55.249Z,71.46
2019-05-07T22:43:22.610Z,72.11
2019-05-07T22:45:48.777Z,71.51
2019-05-07T22:48:14.777Z,71.69
2019-05-07T22:50:42.104Z,71.40
2019-05-07T22:53:08.733Z,71.95
2019-05-07T22:55:34.756Z,72.11
2019-05-07T22:58:05.264Z,72.17
2019-05-07T23:00:33.179Z,72.56
2019-05-07T23:02:59.226Z,72.73
2019-05-07T23:05:25.218Z,72.57
2019-05-07T23:07:52.643Z,73.03
2019-05-07T23:10:18.800Z,73.14
2019-05-07T23:12:44.786Z,72.08
2019-05-07T23:15:11.906Z,72.49
2019-05-07T23:17:38.103Z,72.41
2019-05-07T23:20:04.844Z,72.18
2019-05-07T23:22:32.433Z,72.39
2019-05-07T23:24:59.480Z,73.23
2019-05-07T23:27:25.530Z,73.42
2019-05-07T23:29:52.907Z,73.33
2019-05-07T23:32:19.092Z,73.55
2019-05-07T23:34:45.105Z,73.84
2019-05-07T23:37:11.782Z,73.91
2019-05-07T23:39:45.792Z,73.80
2019-05-07T23:42:19.308Z,73.46
2019-05-07T23:44:45.285Z,73.39
2019-05-07T23:47:12.166Z,73.94
2019-05-07T23:49:38.305Z,74.18
2019-05-07T23:52:04.381Z,73.80
2019-05-07T23:54:31.867Z,74.13
2019-05-07T23:57:05.882Z,74.14
2019-05-07T23:59:26.111Z,74.11
